sensor_id;sensor_type;location;lat;lon;timestamp;P1;durP1;ratioP1;P2;durP2;ratioP2
41927;SDS011;27616;51.420;6.788;2024-03-08T00:01:47;20.27;;;9.00;;
41927;SDS011;27616;51.420;6.788;2024-03-08T00:04:13;20.63;;;8.60;;
41927;SDS011;27616;51.420;6.788;2024-03-08T00:06:40;18.57;;;8.23;;
41927;SDS011;27616;51.420;6.788;2024-03-08T00:09:06;18.43;;;8.00;;
41927;SDS011;27616;51.420;6.788;2024-03-08T00:11:33;17.57;;;8.07;;
41927;SDS011;27616;51.420;6.788;2024-03-08T00:14:00;18.87;;;8.73;;
41927;SDS011;27616;51.420;6.788;2024-03-08T00:16:25;19.50;;;9.07;;
41927;SDS011;27616;51.420;6.788;2024-03-08T00:18:51;18.73;;;8.77;;
41927;SDS011;27616;51.420;6.788;2024-03-08T00:21:16;19.73;;;8.77;;
41927;SDS011;27616;51.420;6.788;2024-03-08T00:23:42;19.27;;;8.60;;
41927;SDS011;27616;51.420;6.788;2024-03-08T00:26:08;23.13;;;9.73;;
41927;SDS011;27616;51.420;6.788;2024-03-08T00:28:34;19.43;;;8.53;;
41927;SDS011;27616;51.420;6.788;2024-03-08T00:30:59;20.37;;;9.07;;
41927;SDS011;27616;51.420;6.788;2024-03-08T00:33:25;18.23;;;8.77;;
41927;SDS011;27616;51.420;6.788;2024-03-08T00:35:52;22.23;;;9.40;;
41927;SDS011;27616;51.420;6.788;2024-03-08T00:38:20;21.10;;;8.80;;
41927;SDS011;27616;51.420;6.788;2024-03-08T00:40:46;18.57;;;8.23;;
41927;SDS011;27616;51.420;6.788;2024-03-08T00:43:12;18.67;;;8.57;;
41927;SDS011;27616;51.420;6.788;2024-03-08T00:45:38;24.23;;;9.70;;
41927;SDS011;27616;51.420;6.788;2024-03-08T00:48:04;17.67;;;8.67;;
41927;SDS011;27616;51.420;6.788;2024-03-08T00:50:30;18.37;;;8.50;;
41927;SDS011;27616;51.420;6.788;2024-03-08T00:52:56;20.13;;;9.13;;
41927;SDS011;27616;51.420;6.788;2024-03-08T00:55:22;20.73;;;9.13;;
41927;SDS011;27616;51.420;6.788;2024-03-08T00:57:47;19.23;;;8.80;;
41927;SDS011;27616;51.420;6.788;2024-03-08T01:00:13;18.20;;;8.70;;
41927;SDS011;27616;51.420;6.788;2024-03-08T01:02:39;19.80;;;9.50;;
41927;SDS011;27616;51.420;6.788;2024-03-08T01:05:05;20.13;;;9.03;;
41927;SDS011;27616;51.420;6.788;2024-03-08T01:07:34;18.02;;;7.80;;
41927;SDS011;27616;51.420;6.788;2024-03-08T01:10:00;22.10;;;9.53;;
41927;SDS011;27616;51.420;6.788;2024-03-08T01:12:28;19.80;;;8.93;;
41927;SDS011;27616;51.420;6.788;2024-03-08T01:14:54;21.83;;;9.00;;
41927;SDS011;27616;51.420;6.788;2024-03-08T01:17:20;18.17;;;8.47;;
41927;SDS011;27616;51.420;6.788;2024-03-08T01:19:46;19.30;;;9.20;;
41927;SDS011;27616;51.420;6.788;2024-03-08T01:22:11;19.70;;;9.10;;
41927;SDS011;27616;51.420;6.788;2024-03-08T01:24:37;18.73;;;8.50;;
41927;SDS011;27616;51.420;6.788;2024-03-08T01:27:02;22.33;;;9.93;;
41927;SDS011;27616;51.420;6.788;2024-03-08T01:29:28;17.50;;;8.53;;
41927;SDS011;27616;51.420;6.788;2024-03-08T01:31:57;23.33;;;10.40;;
41927;SDS011;27616;51.420;6.788;2024-03-08T01:34:25;20.87;;;9.63;;
41927;SDS011;27616;51.420;6.788;2024-03-08T01:36:53;19.43;;;9.23;;
41927;SDS011;27616;51.420;6.788;2024-03-08T01:39:20;20.43;;;9.13;;
41927;SDS011;27616;51.420;6.788;2024-03-08T01:41:47;19.90;;;9.33;;
41927;SDS011;27616;51.420;6.788;2024-03-08T01:44:13;20.33;;;9.30;;
41927;SDS011;27616;51.420;6.788;2024-03-08T01:46:43;21.67;;;9.75;;
41927;SDS011;27616;51.420;6.788;2024-03-08T01:49:09;22.73;;;9.67;;
41927;SDS011;27616;51.420;6.788;2024-03-08T01:51:36;23.17;;;9.60;;
41927;SDS011;27616;51.420;6.788;2024-03-08T01:54:02;21.30;;;9.47;;
41927;SDS011;27616;51.420;6.788;2024-03-08T01:56:29;24.70;;;10.27;;
41927;SDS011;27616;51.420;6.788;2024-03-08T01:58:56;19.03;;;8.77;;
41927;SDS011;27616;51.420;6.788;2024-03-08T02:01:23;21.83;;;9.17;;
41927;SDS011;27616;51.420;6.788;2024-03-08T02:03:50;20.03;;;8.87;;
41927;SDS011;27616;51.420;6.788;2024-03-08T02:06:16;19.40;;;8.90;;
41927;SDS011;27616;51.420;6.788;2024-03-08T02:08:42;23.40;;;9.73;;
41927;SDS011;27616;51.420;6.788;2024-03-08T02:11:10;21.20;;;9.70;;
41927;SDS011;27616;51.420;6.788;2024-03-08T02:13:36;18.70;;;8.93;;
41927;SDS011;27616;51.420;6.788;2024-03-08T02:16:01;20.70;;;9.80;;
41927;SDS011;27616;51.420;6.788;2024-03-08T02:18:28;20.47;;;9.27;;
41927;SDS011;27616;51.420;6.788;2024-03-08T02:20:58;23.80;;;9.87;;
41927;SDS011;27616;51.420;6.788;2024-03-08T02:23:24;24.40;;;10.87;;
41927;SDS011;27616;51.420;6.788;2024-03-08T02:25:51;19.37;;;8.70;;
41927;SDS011;27616;51.420;6.788;2024-03-08T02:28:18;22.40;;;10.37;;
41927;SDS011;27616;51.420;6.788;2024-03-08T02:30:44;19.83;;;9.30;;
41927;SDS011;27616;51.420;6.788;2024-03-08T02:33:13;25.33;;;9.47;;
41927;SDS011;27616;51.420;6.788;2024-03-08T02:35:41;17.93;;;9.17;;
41927;SDS011;27616;51.420;6.788;2024-03-08T02:38:10;22.77;;;10.27;;
41927;SDS011;27616;51.420;6.788;2024-03-08T02:40:43;20.53;;;9.30;;
41927;SDS011;27616;51.420;6.788;2024-03-08T02:43:10;20.50;;;9.37;;
41927;SDS011;27616;51.420;6.788;2024-03-08T02:45:37;22.03;;;10.10;;
41927;SDS011;27616;51.420;6.788;2024-03-08T02:48:02;23.93;;;9.43;;
41927;SDS011;27616;51.420;6.788;2024-03-08T02:50:28;21.67;;;10.03;;
41927;SDS011;27616;51.420;6.788;2024-03-08T02:52:54;23.40;;;10.27;;
41927;SDS011;27616;51.420;6.788;2024-03-08T02:55:20;22.73;;;9.33;;
41927;SDS011;27616;51.420;6.788;2024-03-08T02:57:45;26.27;;;10.17;;
41927;SDS011;27616;51.420;6.788;2024-03-08T03:00:14;23.87;;;10.10;;
41927;SDS011;27616;51.420;6.788;2024-03-08T03:02:40;21.23;;;10.40;;
41927;SDS011;27616;51.420;6.788;2024-03-08T03:05:07;20.90;;;9.77;;
41927;SDS011;27616;51.420;6.788;2024-03-08T03:07:35;21.10;;;9.60;;
41927;SDS011;27616;51.420;6.788;2024-03-08T03:10:01;21.90;;;10.20;;
41927;SDS011;27616;51.420;6.788;2024-03-08T03:12:27;21.00;;;9.90;;
41927;SDS011;27616;51.420;6.788;2024-03-08T03:14:53;27.10;;;11.20;;
41927;SDS011;27616;51.420;6.788;2024-03-08T03:17:19;21.63;;;9.83;;
41927;SDS011;27616;51.420;6.788;2024-03-08T03:19:45;21.43;;;8.80;;
41927;SDS011;27616;51.420;6.788;2024-03-08T03:22:12;20.43;;;9.97;;
41927;SDS011;27616;51.420;6.788;2024-03-08T03:24:37;23.20;;;10.00;;
41927;SDS011;27616;51.420;6.788;2024-03-08T03:27:06;21.67;;;10.70;;
41927;SDS011;27616;51.420;6.788;2024-03-08T03:29:39;18.97;;;9.23;;
41927;SDS011;27616;51.420;6.788;2024-03-08T03:32:07;21.73;;;11.03;;
41927;SDS011;27616;51.420;6.788;2024-03-08T03:34:34;25.67;;;10.93;;
41927;SDS011;27616;51.420;6.788;2024-03-08T03:37:02;23.88;;;10.77;;
41927;SDS011;27616;51.420;6.788;2024-03-08T03:39:29;23.60;;;10.43;;
41927;SDS011;27616;51.420;6.788;2024-03-08T03:41:59;24.30;;;10.30;;
41927;SDS011;27616;51.420;6.788;2024-03-08T03:44:31;26.60;;;10.95;;
41927;SDS011;27616;51.420;6.788;2024-03-08T03:46:57;23.87;;;10.13;;
41927;SDS011;27616;51.420;6.788;2024-03-08T03:49:23;22.23;;;10.50;;
41927;SDS011;27616;51.420;6.788;2024-03-08T03:51:48;25.10;;;10.93;;
41927;SDS011;27616;51.420;6.788;2024-03-08T03:54:15;23.43;;;10.27;;
41927;SDS011;27616;51.420;6.788;2024-03-08T03:56:40;26.63;;;11.00;;
41927;SDS011;27616;51.420;6.788;2024-03-08T03:59:06;24.00;;;10.73;;
41927;SDS011;27616;51.420;6.788;2024-03-08T04:01:32;22.57;;;10.30;;
41927;SDS011;27616;51.420;6.788;2024-03-08T04:03:59;28.80;;;11.63;;
41927;SDS011;27616;51.420;6.788;2024-03-08T04:06:24;22.30;;;10.30;;
41927;SDS011;27616;51.420;6.788;2024-03-08T04:08:50;25.00;;;11.53;;
41927;SDS011;27616;51.420;6.788;2024-03-08T04:11:16;23.73;;;10.60;;
41927;SDS011;27616;51.420;6.788;2024-03-08T04:13:42;26.27;;;10.97;;
41927;SDS011;27616;51.420;6.788;2024-03-08T04:16:08;26.17;;;10.80;;
41927;SDS011;27616;51.420;6.788;2024-03-08T04:18:36;28.40;;;11.33;;
41927;SDS011;27616;51.420;6.788;2024-03-08T04:21:04;24.33;;;10.63;;
41927;SDS011;27616;51.420;6.788;2024-03-08T04:26:01;24.73;;;9.73;;
41927;SDS011;27616;51.420;6.788;2024-03-08T04:28:29;25.00;;;11.00;;
41927;SDS011;27616;51.420;6.788;2024-03-08T04:30:55;31.23;;;11.13;;
41927;SDS011;27616;51.420;6.788;2024-03-08T04:33:20;32.30;;;11.63;;
41927;SDS011;27616;51.420;6.788;2024-03-08T04:35:47;26.87;;;11.63;;
41927;SDS011;27616;51.420;6.788;2024-03-08T04:38:13;24.73;;;10.50;;
41927;SDS011;27616;51.420;6.788;2024-03-08T04:40:38;26.80;;;10.63;;
41927;SDS011;27616;51.420;6.788;2024-03-08T04:43:04;26.53;;;11.03;;
41927;SDS011;27616;51.420;6.788;2024-03-08T04:45:31;28.83;;;11.50;;
41927;SDS011;27616;51.420;6.788;2024-03-08T04:47:56;23.87;;;10.90;;
41927;SDS011;27616;51.420;6.788;2024-03-08T04:50:22;34.23;;;11.90;;
41927;SDS011;27616;51.420;6.788;2024-03-08T04:52:48;29.63;;;11.27;;
41927;SDS011;27616;51.420;6.788;2024-03-08T04:55:14;25.60;;;11.60;;
41927;SDS011;27616;51.420;6.788;2024-03-08T04:57:39;28.67;;;11.97;;
41927;SDS011;27616;51.420;6.788;2024-03-08T05:00:07;31.60;;;11.20;;
41927;SDS011;27616;51.420;6.788;2024-03-08T05:02:36;28.90;;;10.93;;
41927;SDS011;27616;51.420;6.788;2024-03-08T05:05:04;27.63;;;12.00;;
41927;SDS011;27616;51.420;6.788;2024-03-08T05:07:38;25.27;;;11.67;;
41927;SDS011;27616;51.420;6.788;2024-03-08T05:10:05;29.30;;;11.17;;
41927;SDS011;27616;51.420;6.788;2024-03-08T05:12:31;31.43;;;12.67;;
41927;SDS011;27616;51.420;6.788;2024-03-08T05:15:00;27.63;;;11.38;;
41927;SDS011;27616;51.420;6.788;2024-03-08T05:17:27;30.03;;;12.37;;
41927;SDS011;27616;51.420;6.788;2024-03-08T05:19:53;29.20;;;12.07;;
41927;SDS011;27616;51.420;6.788;2024-03-08T05:22:18;29.27;;;11.97;;
41927;SDS011;27616;51.420;6.788;2024-03-08T05:24:44;29.33;;;10.93;;
41927;SDS011;27616;51.420;6.788;2024-03-08T05:27:10;29.30;;;12.33;;
41927;SDS011;27616;51.420;6.788;2024-03-08T05:29:38;29.83;;;12.40;;
41927;SDS011;27616;51.420;6.788;2024-03-08T05:32:03;30.57;;;11.73;;
41927;SDS011;27616;51.420;6.788;2024-03-08T05:34:29;28.63;;;11.47;;
41927;SDS011;27616;51.420;6.788;2024-03-08T05:36:55;31.73;;;11.33;;
41927;SDS011;27616;51.420;6.788;2024-03-08T05:39:21;25.73;;;11.27;;
41927;SDS011;27616;51.420;6.788;2024-03-08T05:41:47;34.17;;;12.90;;
41927;SDS011;27616;51.420;6.788;2024-03-08T05:44:13;27.30;;;10.90;;
41927;SDS011;27616;51.420;6.788;2024-03-08T05:46:39;27.87;;;11.70;;
41927;SDS011;27616;51.420;6.788;2024-03-08T05:49:05;37.90;;;13.80;;
41927;SDS011;27616;51.420;6.788;2024-03-08T05:51:35;28.60;;;11.80;;
41927;SDS011;27616;51.420;6.788;2024-03-08T05:54:05;30.63;;;12.30;;
41927;SDS011;27616;51.420;6.788;2024-03-08T05:56:36;29.83;;;12.10;;
41927;SDS011;27616;51.420;6.788;2024-03-08T05:59:02;28.90;;;12.90;;
41927;SDS011;27616;51.420;6.788;2024-03-08T06:01:28;33.23;;;11.83;;
41927;SDS011;27616;51.420;6.788;2024-03-08T06:03:54;30.50;;;11.77;;
41927;SDS011;27616;51.420;6.788;2024-03-08T06:06:22;33.73;;;11.73;;
41927;SDS011;27616;51.420;6.788;2024-03-08T06:08:48;27.43;;;11.37;;
41927;SDS011;27616;51.420;6.788;2024-03-08T06:11:14;30.77;;;11.33;;
41927;SDS011;27616;51.420;6.788;2024-03-08T06:13:42;25.13;;;11.47;;
41927;SDS011;27616;51.420;6.788;2024-03-08T06:16:08;30.27;;;12.77;;
41927;SDS011;27616;51.420;6.788;2024-03-08T06:18:34;28.80;;;10.70;;
41927;SDS011;27616;51.420;6.788;2024-03-08T06:21:05;27.03;;;10.83;;
41927;SDS011;27616;51.420;6.788;2024-03-08T06:23:32;29.67;;;11.60;;
41927;SDS011;27616;51.420;6.788;2024-03-08T06:25:58;26.07;;;11.27;;
41927;SDS011;27616;51.420;6.788;2024-03-08T06:28:24;33.47;;;11.97;;
41927;SDS011;27616;51.420;6.788;2024-03-08T06:30:50;32.10;;;12.67;;
41927;SDS011;27616;51.420;6.788;2024-03-08T06:33:16;30.60;;;11.67;;
41927;SDS011;27616;51.420;6.788;2024-03-08T06:35:42;27.43;;;11.17;;
41927;SDS011;27616;51.420;6.788;2024-03-08T06:38:08;31.77;;;11.43;;
41927;SDS011;27616;51.420;6.788;2024-03-08T06:40:34;27.03;;;11.23;;
41927;SDS011;27616;51.420;6.788;2024-03-08T06:43:00;27.37;;;11.50;;
41927;SDS011;27616;51.420;6.788;2024-03-08T06:45:26;29.33;;;12.60;;
41927;SDS011;27616;51.420;6.788;2024-03-08T06:47:51;31.97;;;12.50;;
41927;SDS011;27616;51.420;6.788;2024-03-08T06:50:17;27.90;;;11.30;;
41927;SDS011;27616;51.420;6.788;2024-03-08T06:52:42;27.47;;;11.10;;
41927;SDS011;27616;51.420;6.788;2024-03-08T06:55:09;29.53;;;12.10;;
41927;SDS011;27616;51.420;6.788;2024-03-08T06:57:38;28.05;;;11.40;;
41927;SDS011;27616;51.420;6.788;2024-03-08T07:00:08;29.13;;;11.90;;
41927;SDS011;27616;51.420;6.788;2024-03-08T07:02:43;38.27;;;12.47;;
41927;SDS011;27616;51.420;6.788;2024-03-08T07:05:14;26.97;;;11.27;;
41927;SDS011;27616;51.420;6.788;2024-03-08T07:07:41;27.93;;;11.67;;
41927;SDS011;27616;51.420;6.788;2024-03-08T07:10:07;28.97;;;12.67;;
41927;SDS011;27616;51.420;6.788;2024-03-08T07:12:36;29.17;;;12.57;;
41927;SDS011;27616;51.420;6.788;2024-03-08T07:15:02;31.27;;;12.53;;
41927;SDS011;27616;51.420;6.788;2024-03-08T07:17:30;30.40;;;13.10;;
41927;SDS011;27616;51.420;6.788;2024-03-08T07:19:59;32.25;;;12.68;;
41927;SDS011;27616;51.420;6.788;2024-03-08T07:22:32;30.53;;;12.50;;
41927;SDS011;27616;51.420;6.788;2024-03-08T07:24:58;29.20;;;12.60;;
41927;SDS011;27616;51.420;6.788;2024-03-08T07:27:29;30.23;;;12.67;;
41927;SDS011;27616;51.420;6.788;2024-03-08T07:29:55;26.93;;;12.33;;
41927;SDS011;27616;51.420;6.788;2024-03-08T07:32:21;26.83;;;11.70;;
41927;SDS011;27616;51.420;6.788;2024-03-08T07:34:47;27.80;;;12.70;;
41927;SDS011;27616;51.420;6.788;2024-03-08T07:37:14;32.10;;;12.63;;
41927;SDS011;27616;51.420;6.788;2024-03-08T07:39:39;26.37;;;11.60;;
41927;SDS011;27616;51.420;6.788;2024-03-08T07:42:05;25.83;;;12.40;;
41927;SDS011;27616;51.420;6.788;2024-03-08T07:44:31;25.63;;;11.97;;
41927;SDS011;27616;51.420;6.788;2024-03-08T07:46:57;26.80;;;12.13;;
41927;SDS011;27616;51.420;6.788;2024-03-08T07:49:23;25.90;;;11.73;;
41927;SDS011;27616;51.420;6.788;2024-03-08T07:51:49;25.53;;;12.10;;
41927;SDS011;27616;51.420;6.788;2024-03-08T07:54:15;23.47;;;11.40;;
41927;SDS011;27616;51.420;6.788;2024-03-08T07:56:40;23.10;;;11.73;;
41927;SDS011;27616;51.420;6.788;2024-03-08T07:59:07;23.93;;;11.20;;
41927;SDS011;27616;51.420;6.788;2024-03-08T08:01:33;21.00;;;11.23;;
41927;SDS011;27616;51.420;6.788;2024-03-08T08:03:59;19.83;;;11.13;;
41927;SDS011;27616;51.420;6.788;2024-03-08T08:06:26;24.17;;;11.63;;
41927;SDS011;27616;51.420;6.788;2024-03-08T08:08:52;22.73;;;11.47;;
41927;SDS011;27616;51.420;6.788;2024-03-08T08:11:18;25.77;;;12.23;;
41927;SDS011;27616;51.420;6.788;2024-03-08T08:13:45;24.00;;;11.17;;
41927;SDS011;27616;51.420;6.788;2024-03-08T08:16:11;25.67;;;11.37;;
41927;SDS011;27616;51.420;6.788;2024-03-08T08:18:38;25.00;;;12.47;;
41927;SDS011;27616;51.420;6.788;2024-03-08T08:21:04;27.60;;;11.60;;
41927;SDS011;27616;51.420;6.788;2024-03-08T08:23:31;24.00;;;11.27;;
41927;SDS011;27616;51.420;6.788;2024-03-08T08:25:57;22.37;;;10.30;;
41927;SDS011;27616;51.420;6.788;2024-03-08T08:28:23;22.00;;;10.53;;
41927;SDS011;27616;51.420;6.788;2024-03-08T08:30:49;21.17;;;9.93;;
41927;SDS011;27616;51.420;6.788;2024-03-08T08:33:15;23.63;;;10.23;;
41927;SDS011;27616;51.420;6.788;2024-03-08T08:35:41;17.83;;;9.70;;
41927;SDS011;27616;51.420;6.788;2024-03-08T08:38:07;19.70;;;9.70;;
41927;SDS011;27616;51.420;6.788;2024-03-08T08:40:33;17.13;;;9.10;;
41927;SDS011;27616;51.420;6.788;2024-03-08T08:43:01;28.83;;;14.17;;
41927;SDS011;27616;51.420;6.788;2024-03-08T08:45:29;19.95;;;10.00;;
41927;SDS011;27616;51.420;6.788;2024-03-08T08:47:55;19.80;;;10.17;;
41927;SDS011;27616;51.420;6.788;2024-03-08T08:50:21;20.63;;;9.53;;
41927;SDS011;27616;51.420;6.788;2024-03-08T08:52:53;21.00;;;10.23;;
41927;SDS011;27616;51.420;6.788;2024-03-08T08:55:19;23.00;;;10.80;;
41927;SDS011;27616;51.420;6.788;2024-03-08T08:57:50;20.37;;;9.77;;
41927;SDS011;27616;51.420;6.788;2024-03-08T09:00:17;20.73;;;9.87;;
41927;SDS011;27616;51.420;6.788;2024-03-08T09:02:45;25.10;;;11.00;;
41927;SDS011;27616;51.420;6.788;2024-03-08T09:05:12;19.77;;;9.73;;
41927;SDS011;27616;51.420;6.788;2024-03-08T09:07:39;23.17;;;9.73;;
41927;SDS011;27616;51.420;6.788;2024-03-08T09:10:05;20.17;;;10.30;;
41927;SDS011;27616;51.420;6.788;2024-03-08T09:12:32;21.53;;;10.60;;
41927;SDS011;27616;51.420;6.788;2024-03-08T09:14:57;23.93;;;9.77;;
41927;SDS011;27616;51.420;6.788;2024-03-08T09:17:24;24.97;;;10.43;;
41927;SDS011;27616;51.420;6.788;2024-03-08T09:19:50;21.80;;;9.77;;
41927;SDS011;27616;51.420;6.788;2024-03-08T09:22:16;18.63;;;9.97;;
41927;SDS011;27616;51.420;6.788;2024-03-08T09:24:43;19.40;;;9.73;;
41927;SDS011;27616;51.420;6.788;2024-03-08T09:27:08;22.33;;;9.97;;
41927;SDS011;27616;51.420;6.788;2024-03-08T09:29:35;19.90;;;9.83;;
41927;SDS011;27616;51.420;6.788;2024-03-08T09:32:01;19.33;;;9.63;;
41927;SDS011;27616;51.420;6.788;2024-03-08T09:34:26;19.47;;;9.73;;
41927;SDS011;27616;51.420;6.788;2024-03-08T09:36:52;22.47;;;10.50;;
41927;SDS011;27616;51.420;6.788;2024-03-08T09:39:18;24.30;;;11.37;;
41927;SDS011;27616;51.420;6.788;2024-03-08T09:41:46;18.70;;;9.37;;
41927;SDS011;27616;51.420;6.788;2024-03-08T09:44:17;19.67;;;9.73;;
41927;SDS011;27616;51.420;6.788;2024-03-08T09:46:45;23.63;;;10.95;;
41927;SDS011;27616;51.420;6.788;2024-03-08T09:49:12;21.70;;;11.10;;
41927;SDS011;27616;51.420;6.788;2024-03-08T09:51:38;21.17;;;10.45;;
41927;SDS011;27616;51.420;6.788;2024-03-08T09:54:06;21.65;;;11.30;;
41927;SDS011;27616;51.420;6.788;2024-03-08T09:56:32;17.05;;;10.15;;
41927;SDS011;27616;51.420;6.788;2024-03-08T09:58:59;20.50;;;9.80;;
41927;SDS011;27616;51.420;6.788;2024-03-08T10:01:30;17.17;;;10.00;;
41927;SDS011;27616;51.420;6.788;2024-03-08T10:03:57;21.58;;;10.25;;
41927;SDS011;27616;51.420;6.788;2024-03-08T10:06:23;17.73;;;10.20;;
41927;SDS011;27616;51.420;6.788;2024-03-08T10:08:49;18.08;;;9.82;;
41927;SDS011;27616;51.420;6.788;2024-03-08T10:11:17;17.13;;;9.82;;
41927;SDS011;27616;51.420;6.788;2024-03-08T10:13:44;18.55;;;10.40;;
41927;SDS011;27616;51.420;6.788;2024-03-08T10:16:11;17.05;;;10.70;;
41927;SDS011;27616;51.420;6.788;2024-03-08T10:18:37;18.58;;;11.18;;
41927;SDS011;27616;51.420;6.788;2024-03-08T10:21:06;16.52;;;10.25;;
41927;SDS011;27616;51.420;6.788;2024-03-08T10:23:35;15.35;;;9.57;;
41927;SDS011;27616;51.420;6.788;2024-03-08T10:26:17;17.23;;;9.65;;
41927;SDS011;27616;51.420;6.788;2024-03-08T10:28:46;17.88;;;10.45;;
41927;SDS011;27616;51.420;6.788;2024-03-08T10:31:13;17.17;;;9.95;;
41927;SDS011;27616;51.420;6.788;2024-03-08T10:33:40;17.15;;;11.43;;
41927;SDS011;27616;51.420;6.788;2024-03-08T10:36:09;14.43;;;9.48;;
41927;SDS011;27616;51.420;6.788;2024-03-08T10:38:39;16.55;;;10.18;;
41927;SDS011;27616;51.420;6.788;2024-03-08T10:41:07;17.13;;;9.73;;
41927;SDS011;27616;51.420;6.788;2024-03-08T10:46:30;15.02;;;9.35;;
41927;SDS011;27616;51.420;6.788;2024-03-08T10:48:58;19.30;;;10.93;;
41927;SDS011;27616;51.420;6.788;2024-03-08T10:51:29;16.63;;;9.60;;
41927;SDS011;27616;51.420;6.788;2024-03-08T10:53:57;12.43;;;8.52;;
41927;SDS011;27616;51.420;6.788;2024-03-08T10:56:24;14.30;;;9.18;;
41927;SDS011;27616;51.420;6.788;2024-03-08T10:58:53;15.52;;;9.20;;
41927;SDS011;27616;51.420;6.788;2024-03-08T11:01:20;16.30;;;8.75;;
41927;SDS011;27616;51.420;6.788;2024-03-08T11:03:47;15.05;;;9.30;;
41927;SDS011;27616;51.420;6.788;2024-03-08T11:07:00;17.08;;;10.25;;
41927;SDS011;27616;51.420;6.788;2024-03-08T11:14:54;14.48;;;8.32;;
41927;SDS011;27616;51.420;6.788;2024-03-08T11:19:58;14.45;;;8.75;;
41927;SDS011;27616;51.420;6.788;2024-03-08T11:22:32;18.10;;;9.85;;
41927;SDS011;27616;51.420;6.788;2024-03-08T11:24:59;16.92;;;9.15;;
41927;SDS011;27616;51.420;6.788;2024-03-08T11:27:38;14.65;;;9.02;;
41927;SDS011;27616;51.420;6.788;2024-03-08T11:30:04;16.52;;;9.00;;
41927;SDS011;27616;51.420;6.788;2024-03-08T11:32:37;14.27;;;8.45;;
41927;SDS011;27616;51.420;6.788;2024-03-08T11:35:07;15.52;;;7.97;;
41927;SDS011;27616;51.420;6.788;2024-03-08T11:37:43;15.88;;;8.30;;
41927;SDS011;27616;51.420;6.788;2024-03-08T11:40:12;16.33;;;8.88;;
41927;SDS011;27616;51.420;6.788;2024-03-08T11:42:47;14.38;;;8.02;;
41927;SDS011;27616;51.420;6.788;2024-03-08T11:45:14;13.60;;;7.68;;
41927;SDS011;27616;51.420;6.788;2024-03-08T11:47:42;16.40;;;9.20;;
41927;SDS011;27616;51.420;6.788;2024-03-08T11:50:10;19.55;;;9.30;;
41927;SDS011;27616;51.420;6.788;2024-03-08T11:52:36;18.92;;;11.10;;
41927;SDS011;27616;51.420;6.788;2024-03-08T11:55:04;17.60;;;10.00;;
41927;SDS011;27616;51.420;6.788;2024-03-08T11:57:31;22.63;;;11.70;;
41927;SDS011;27616;51.420;6.788;2024-03-08T11:59:57;20.80;;;10.85;;
41927;SDS011;27616;51.420;6.788;2024-03-08T12:02:24;17.45;;;11.23;;
41927;SDS011;27616;51.420;6.788;2024-03-08T12:04:56;21.48;;;11.90;;
41927;SDS011;27616;51.420;6.788;2024-03-08T12:07:23;20.83;;;11.77;;
41927;SDS011;27616;51.420;6.788;2024-03-08T12:12:46;21.90;;;13.15;;
41927;SDS011;27616;51.420;6.788;2024-03-08T12:15:17;18.77;;;12.32;;
41927;SDS011;27616;51.420;6.788;2024-03-08T12:17:43;19.65;;;12.23;;
41927;SDS011;27616;51.420;6.788;2024-03-08T12:20:16;20.10;;;12.50;;
41927;SDS011;27616;51.420;6.788;2024-03-08T12:22:43;21.65;;;11.95;;
41927;SDS011;27616;51.420;6.788;2024-03-08T12:25:13;19.63;;;11.93;;
41927;SDS011;27616;51.420;6.788;2024-03-08T12:27:39;20.48;;;12.40;;
41927;SDS011;27616;51.420;6.788;2024-03-08T12:30:16;19.08;;;11.90;;
41927;SDS011;27616;51.420;6.788;2024-03-08T12:32:46;18.33;;;11.10;;
41927;SDS011;27616;51.420;6.788;2024-03-08T12:35:18;19.90;;;12.00;;
41927;SDS011;27616;51.420;6.788;2024-03-08T12:37:47;19.52;;;11.50;;
41927;SDS011;27616;51.420;6.788;2024-03-08T12:40:14;19.55;;;11.70;;
41927;SDS011;27616;51.420;6.788;2024-03-08T12:42:42;21.95;;;11.50;;
41927;SDS011;27616;51.420;6.788;2024-03-08T12:45:09;24.60;;;12.35;;
41927;SDS011;27616;51.420;6.788;2024-03-08T12:47:35;19.38;;;11.68;;
41927;SDS011;27616;51.420;6.788;2024-03-08T12:50:01;22.05;;;11.30;;
41927;SDS011;27616;51.420;6.788;2024-03-08T12:52:28;19.38;;;11.05;;
41927;SDS011;27616;51.420;6.788;2024-03-08T12:54:55;21.17;;;11.27;;
41927;SDS011;27616;51.420;6.788;2024-03-08T12:57:21;19.70;;;10.95;;
41927;SDS011;27616;51.420;6.788;2024-03-08T12:59:46;17.33;;;10.65;;
41927;SDS011;27616;51.420;6.788;2024-03-08T13:02:12;18.48;;;10.57;;
41927;SDS011;27616;51.420;6.788;2024-03-08T13:04:37;18.23;;;10.15;;
41927;SDS011;27616;51.420;6.788;2024-03-08T13:07:03;13.60;;;5.95;;
41927;SDS011;27616;51.420;6.788;2024-03-08T13:09:29;11.38;;;5.63;;
41927;SDS011;27616;51.420;6.788;2024-03-08T13:11:54;9.77;;;4.78;;
41927;SDS011;27616;51.420;6.788;2024-03-08T13:14:20;15.48;;;4.80;;
41927;SDS011;27616;51.420;6.788;2024-03-08T13:16:47;9.73;;;5.07;;
41927;SDS011;27616;51.420;6.788;2024-03-08T13:19:13;10.40;;;5.57;;
41927;SDS011;27616;51.420;6.788;2024-03-08T13:21:39;8.60;;;4.80;;
41927;SDS011;27616;51.420;6.788;2024-03-08T13:24:04;8.95;;;4.85;;
41927;SDS011;27616;51.420;6.788;2024-03-08T13:26:30;8.25;;;5.05;;
41927;SDS011;27616;51.420;6.788;2024-03-08T13:28:58;8.55;;;4.63;;
41927;SDS011;27616;51.420;6.788;2024-03-08T13:31:24;8.98;;;4.78;;
41927;SDS011;27616;51.420;6.788;2024-03-08T13:33:50;7.93;;;4.75;;
41927;SDS011;27616;51.420;6.788;2024-03-08T13:36:22;7.93;;;4.72;;
41927;SDS011;27616;51.420;6.788;2024-03-08T13:38:54;9.40;;;5.40;;
41927;SDS011;27616;51.420;6.788;2024-03-08T13:41:19;8.57;;;4.80;;
41927;SDS011;27616;51.420;6.788;2024-03-08T13:43:49;9.35;;;5.07;;
41927;SDS011;27616;51.420;6.788;2024-03-08T13:46:15;7.70;;;4.35;;
41927;SDS011;27616;51.420;6.788;2024-03-08T13:48:41;9.35;;;5.28;;
41927;SDS011;27616;51.420;6.788;2024-03-08T13:51:08;6.88;;;3.85;;
41927;SDS011;27616;51.420;6.788;2024-03-08T13:53:40;10.00;;;4.93;;
41927;SDS011;27616;51.420;6.788;2024-03-08T13:56:06;8.43;;;4.63;;
41927;SDS011;27616;51.420;6.788;2024-03-08T13:58:35;8.32;;;4.28;;
41927;SDS011;27616;51.420;6.788;2024-03-08T14:01:01;7.97;;;4.53;;
41927;SDS011;27616;51.420;6.788;2024-03-08T14:03:28;8.52;;;4.25;;
41927;SDS011;27616;51.420;6.788;2024-03-08T14:05:54;9.98;;;4.57;;
41927;SDS011;27616;51.420;6.788;2024-03-08T14:08:22;9.35;;;4.95;;
41927;SDS011;27616;51.420;6.788;2024-03-08T14:10:49;8.00;;;4.43;;
41927;SDS011;27616;51.420;6.788;2024-03-08T14:13:17;9.60;;;4.72;;
41927;SDS011;27616;51.420;6.788;2024-03-08T14:15:44;8.73;;;4.40;;
41927;SDS011;27616;51.420;6.788;2024-03-08T14:18:11;8.38;;;4.68;;
41927;SDS011;27616;51.420;6.788;2024-03-08T14:20:38;10.10;;;4.55;;
41927;SDS011;27616;51.420;6.788;2024-03-08T14:23:04;9.45;;;4.60;;
41927;SDS011;27616;51.420;6.788;2024-03-08T14:25:33;11.38;;;4.57;;
41927;SDS011;27616;51.420;6.788;2024-03-08T14:27:58;8.77;;;5.00;;
41927;SDS011;27616;51.420;6.788;2024-03-08T14:30:31;9.03;;;4.23;;
41927;SDS011;27616;51.420;6.788;2024-03-08T14:33:07;9.65;;;4.72;;
41927;SDS011;27616;51.420;6.788;2024-03-08T14:35:36;9.18;;;4.63;;
41927;SDS011;27616;51.420;6.788;2024-03-08T14:38:03;9.07;;;4.00;;
41927;SDS011;27616;51.420;6.788;2024-03-08T14:40:29;11.98;;;4.60;;
41927;SDS011;27616;51.420;6.788;2024-03-08T14:42:55;8.73;;;4.60;;
41927;SDS011;27616;51.420;6.788;2024-03-08T14:45:22;8.88;;;4.40;;